sensor_id;sensor_type;location;lat;lon;timestamp;P1;durP1;ratioP1;P2;durP2;ratioP2
25932;SDS011;13731;51.166;4.474;2024-01-07T00:00:30;36.47;;;33.58;;
25932;SDS011;13731;51.166;4.474;2024-01-07T00:02:56;40.97;;;37.85;;
25932;SDS011;13731;51.166;4.474;2024-01-07T00:05:22;39.03;;;36.15;;
25932;SDS011;13731;51.166;4.474;2024-01-07T00:07:48;33.53;;;30.80;;
25932;SDS011;13731;51.166;4.474;2024-01-07T00:10:16;33.83;;;30.88;;
25932;SDS011;13731;51.166;4.474;2024-01-07T00:12:42;29.13;;;26.80;;
25932;SDS011;13731;51.166;4.474;2024-01-07T00:15:07;28.77;;;26.25;;
25932;SDS011;13731;51.166;4.474;2024-01-07T00:17:34;34.30;;;31.40;;
25932;SDS011;13731;51.166;4.474;2024-01-07T00:19:59;31.80;;;29.20;;
25932;SDS011;13731;51.166;4.474;2024-01-07T00:22:25;31.05;;;28.33;;
25932;SDS011;13731;51.166;4.474;2024-01-07T00:24:51;32.58;;;29.88;;
25932;SDS011;13731;51.166;4.474;2024-01-07T00:27:17;31.58;;;28.98;;
25932;SDS011;13731;51.166;4.474;2024-01-07T00:29:42;36.35;;;33.45;;
25932;SDS011;13731;51.166;4.474;2024-01-07T00:32:08;31.23;;;28.42;;
25932;SDS011;13731;51.166;4.474;2024-01-07T00:34:34;32.35;;;29.45;;
25932;SDS011;13731;51.166;4.474;2024-01-07T00:37:00;32.20;;;29.38;;
25932;SDS011;13731;51.166;4.474;2024-01-07T00:39:25;31.65;;;29.00;;
25932;SDS011;13731;51.166;4.474;2024-01-07T00:41:51;33.85;;;31.05;;
25932;SDS011;13731;51.166;4.474;2024-01-07T00:44:17;32.53;;;29.70;;
25932;SDS011;13731;51.166;4.474;2024-01-07T00:46:44;31.55;;;28.83;;
25932;SDS011;13731;51.166;4.474;2024-01-07T00:49:10;31.25;;;28.20;;
25932;SDS011;13731;51.166;4.474;2024-01-07T00:51:35;31.85;;;29.02;;
25932;SDS011;13731;51.166;4.474;2024-01-07T00:54:03;29.02;;;26.35;;
25932;SDS011;13731;51.166;4.474;2024-01-07T00:56:29;32.28;;;29.33;;
25932;SDS011;13731;51.166;4.474;2024-01-07T00:58:55;30.73;;;28.13;;
25932;SDS011;13731;51.166;4.474;2024-01-07T01:01:21;33.13;;;29.98;;
25932;SDS011;13731;51.166;4.474;2024-01-07T01:03:47;30.63;;;27.70;;
25932;SDS011;13731;51.166;4.474;2024-01-07T01:06:16;32.40;;;29.27;;
25932;SDS011;13731;51.166;4.474;2024-01-07T01:08:42;31.10;;;28.13;;
25932;SDS011;13731;51.166;4.474;2024-01-07T01:11:10;29.27;;;26.42;;
25932;SDS011;13731;51.166;4.474;2024-01-07T01:13:36;33.97;;;30.98;;
25932;SDS011;13731;51.166;4.474;2024-01-07T01:16:02;31.70;;;28.40;;
25932;SDS011;13731;51.166;4.474;2024-01-07T01:18:28;32.17;;;28.95;;
25932;SDS011;13731;51.166;4.474;2024-01-07T01:20:56;36.38;;;32.97;;
25932;SDS011;13731;51.166;4.474;2024-01-07T01:23:22;33.97;;;30.67;;
25932;SDS011;13731;51.166;4.474;2024-01-07T01:25:47;33.75;;;30.60;;
25932;SDS011;13731;51.166;4.474;2024-01-07T01:28:14;39.38;;;35.88;;
25932;SDS011;13731;51.166;4.474;2024-01-07T01:30:40;32.22;;;29.10;;
25932;SDS011;13731;51.166;4.474;2024-01-07T01:33:08;35.35;;;32.30;;
25932;SDS011;13731;51.166;4.474;2024-01-07T01:35:33;33.80;;;30.58;;
25932;SDS011;13731;51.166;4.474;2024-01-07T01:38:00;31.63;;;28.63;;
25932;SDS011;13731;51.166;4.474;2024-01-07T01:40:25;37.05;;;33.33;;
25932;SDS011;13731;51.166;4.474;2024-01-07T01:42:51;36.30;;;32.80;;
25932;SDS011;13731;51.166;4.474;2024-01-07T01:45:17;43.58;;;39.85;;
25932;SDS011;13731;51.166;4.474;2024-01-07T01:47:45;41.92;;;38.22;;
25932;SDS011;13731;51.166;4.474;2024-01-07T01:50:12;47.20;;;43.08;;
25932;SDS011;13731;51.166;4.474;2024-01-07T01:52:39;41.53;;;37.88;;
25932;SDS011;13731;51.166;4.474;2024-01-07T01:55:05;39.65;;;35.85;;
25932;SDS011;13731;51.166;4.474;2024-01-07T01:57:33;39.42;;;35.53;;
25932;SDS011;13731;51.166;4.474;2024-01-07T02:00:05;40.60;;;36.70;;
25932;SDS011;13731;51.166;4.474;2024-01-07T02:02:34;38.47;;;34.80;;
25932;SDS011;13731;51.166;4.474;2024-01-07T02:05:00;39.65;;;35.88;;
25932;SDS011;13731;51.166;4.474;2024-01-07T02:07:27;36.60;;;33.20;;
25932;SDS011;13731;51.166;4.474;2024-01-07T02:09:55;40.75;;;36.92;;
25932;SDS011;13731;51.166;4.474;2024-01-07T02:12:21;36.08;;;32.58;;
25932;SDS011;13731;51.166;4.474;2024-01-07T02:14:48;35.50;;;32.10;;
25932;SDS011;13731;51.166;4.474;2024-01-07T02:17:14;37.58;;;33.85;;
25932;SDS011;13731;51.166;4.474;2024-01-07T02:19:42;43.92;;;39.47;;
25932;SDS011;13731;51.166;4.474;2024-01-07T02:22:08;39.78;;;35.78;;
25932;SDS011;13731;51.166;4.474;2024-01-07T02:24:34;40.08;;;35.80;;
25932;SDS011;13731;51.166;4.474;2024-01-07T02:26:59;47.08;;;42.40;;
25932;SDS011;13731;51.166;4.474;2024-01-07T02:29:28;42.47;;;38.45;;
25932;SDS011;13731;51.166;4.474;2024-01-07T02:31:54;41.45;;;37.15;;
25932;SDS011;13731;51.166;4.474;2024-01-07T02:34:20;39.83;;;35.63;;
25932;SDS011;13731;51.166;4.474;2024-01-07T02:36:46;38.92;;;34.45;;
25932;SDS011;13731;51.166;4.474;2024-01-07T02:39:13;42.20;;;37.70;;
25932;SDS011;13731;51.166;4.474;2024-01-07T02:41:38;41.55;;;37.38;;
25932;SDS011;13731;51.166;4.474;2024-01-07T02:44:04;39.92;;;35.75;;
25932;SDS011;13731;51.166;4.474;2024-01-07T02:46:30;42.97;;;38.58;;
25932;SDS011;13731;51.166;4.474;2024-01-07T02:48:56;36.97;;;33.10;;
25932;SDS011;13731;51.166;4.474;2024-01-07T02:51:22;39.65;;;35.10;;
25932;SDS011;13731;51.166;4.474;2024-01-07T02:53:48;35.67;;;31.30;;
25932;SDS011;13731;51.166;4.474;2024-01-07T02:56:15;38.15;;;34.03;;
25932;SDS011;13731;51.166;4.474;2024-01-07T02:58:40;41.42;;;36.85;;
25932;SDS011;13731;51.166;4.474;2024-01-07T03:01:09;37.83;;;33.92;;
25932;SDS011;13731;51.166;4.474;2024-01-07T03:03:36;42.92;;;37.95;;
25932;SDS011;13731;51.166;4.474;2024-01-07T03:06:02;40.88;;;36.45;;
25932;SDS011;13731;51.166;4.474;2024-01-07T03:08:29;41.42;;;34.92;;
25932;SDS011;13731;51.166;4.474;2024-01-07T03:10:54;38.88;;;34.38;;
25932;SDS011;13731;51.166;4.474;2024-01-07T03:13:20;41.92;;;37.75;;
25932;SDS011;13731;51.166;4.474;2024-01-07T03:15:46;38.90;;;34.65;;
25932;SDS011;13731;51.166;4.474;2024-01-07T03:18:12;36.55;;;32.58;;
25932;SDS011;13731;51.166;4.474;2024-01-07T03:20:37;41.95;;;37.40;;
25932;SDS011;13731;51.166;4.474;2024-01-07T03:23:03;38.08;;;33.95;;
25932;SDS011;13731;51.166;4.474;2024-01-07T03:25:29;37.22;;;33.15;;
25932;SDS011;13731;51.166;4.474;2024-01-07T03:27:55;39.55;;;35.30;;
25932;SDS011;13731;51.166;4.474;2024-01-07T03:30:21;39.55;;;35.42;;
25932;SDS011;13731;51.166;4.474;2024-01-07T03:32:46;38.88;;;34.90;;
25932;SDS011;13731;51.166;4.474;2024-01-07T03:35:14;35.03;;;31.25;;
25932;SDS011;13731;51.166;4.474;2024-01-07T03:37:40;37.83;;;33.63;;
25932;SDS011;13731;51.166;4.474;2024-01-07T03:40:12;39.53;;;35.33;;
25932;SDS011;13731;51.166;4.474;2024-01-07T03:42:37;34.60;;;30.75;;
25932;SDS011;13731;51.166;4.474;2024-01-07T03:45:04;37.35;;;33.33;;
25932;SDS011;13731;51.166;4.474;2024-01-07T03:47:33;37.38;;;33.33;;
25932;SDS011;13731;51.166;4.474;2024-01-07T03:49:59;37.85;;;34.15;;
25932;SDS011;13731;51.166;4.474;2024-01-07T03:52:25;36.72;;;32.88;;
25932;SDS011;13731;51.166;4.474;2024-01-07T03:54:51;37.60;;;33.67;;
25932;SDS011;13731;51.166;4.474;2024-01-07T03:57:16;36.63;;;32.88;;
25932;SDS011;13731;51.166;4.474;2024-01-07T03:59:42;39.10;;;35.03;;
25932;SDS011;13731;51.166;4.474;2024-01-07T04:02:08;36.92;;;33.15;;
25932;SDS011;13731;51.166;4.474;2024-01-07T04:04:34;36.53;;;33.13;;
25932;SDS011;13731;51.166;4.474;2024-01-07T04:07:00;36.80;;;33.38;;
25932;SDS011;13731;51.166;4.474;2024-01-07T04:09:26;37.88;;;34.17;;
25932;SDS011;13731;51.166;4.474;2024-01-07T04:11:53;41.25;;;37.28;;
25932;SDS011;13731;51.166;4.474;2024-01-07T04:14:19;36.85;;;33.10;;
25932;SDS011;13731;51.166;4.474;2024-01-07T04:16:45;36.60;;;32.92;;
25932;SDS011;13731;51.166;4.474;2024-01-07T04:19:11;40.15;;;36.25;;
25932;SDS011;13731;51.166;4.474;2024-01-07T04:21:37;39.42;;;35.47;;
25932;SDS011;13731;51.166;4.474;2024-01-07T04:24:03;43.63;;;39.33;;
25932;SDS011;13731;51.166;4.474;2024-01-07T04:26:32;40.85;;;36.95;;
25932;SDS011;13731;51.166;4.474;2024-01-07T04:28:58;48.70;;;44.55;;
25932;SDS011;13731;51.166;4.474;2024-01-07T04:31:24;43.55;;;39.50;;
25932;SDS011;13731;51.166;4.474;2024-01-07T04:33:49;45.03;;;40.70;;
25932;SDS011;13731;51.166;4.474;2024-01-07T04:36:15;47.95;;;43.42;;
25932;SDS011;13731;51.166;4.474;2024-01-07T04:38:41;47.70;;;43.47;;
25932;SDS011;13731;51.166;4.474;2024-01-07T04:41:07;49.92;;;45.10;;
25932;SDS011;13731;51.166;4.474;2024-01-07T04:43:33;54.10;;;49.45;;
25932;SDS011;13731;51.166;4.474;2024-01-07T04:46:00;62.45;;;57.40;;
25932;SDS011;13731;51.166;4.474;2024-01-07T04:48:26;56.70;;;51.88;;
25932;SDS011;13731;51.166;4.474;2024-01-07T04:50:52;65.15;;;59.65;;
25932;SDS011;13731;51.166;4.474;2024-01-07T04:53:18;61.28;;;55.88;;
25932;SDS011;13731;51.166;4.474;2024-01-07T04:55:44;64.05;;;58.75;;
25932;SDS011;13731;51.166;4.474;2024-01-07T04:58:10;68.93;;;63.00;;
25932;SDS011;13731;51.166;4.474;2024-01-07T05:00:36;72.75;;;66.47;;
25932;SDS011;13731;51.166;4.474;2024-01-07T05:03:02;72.45;;;66.53;;
25932;SDS011;13731;51.166;4.474;2024-01-07T05:05:27;72.65;;;66.38;;
25932;SDS011;13731;51.166;4.474;2024-01-07T05:07:53;76.60;;;70.25;;
25932;SDS011;13731;51.166;4.474;2024-01-07T05:10:19;79.22;;;72.18;;
25932;SDS011;13731;51.166;4.474;2024-01-07T05:12:45;77.90;;;71.47;;
25932;SDS011;13731;51.166;4.474;2024-01-07T05:15:11;79.53;;;73.07;;
25932;SDS011;13731;51.166;4.474;2024-01-07T05:17:37;73.78;;;67.28;;
25932;SDS011;13731;51.166;4.474;2024-01-07T05:20:03;75.93;;;69.18;;
25932;SDS011;13731;51.166;4.474;2024-01-07T05:22:34;76.43;;;69.80;;
25932;SDS011;13731;51.166;4.474;2024-01-07T05:25:01;71.93;;;65.60;;
25932;SDS011;13731;51.166;4.474;2024-01-07T05:27:27;79.40;;;72.72;;
25932;SDS011;13731;51.166;4.474;2024-01-07T05:29:53;76.75;;;70.15;;
25932;SDS011;13731;51.166;4.474;2024-01-07T05:32:20;80.50;;;73.30;;
25932;SDS011;13731;51.166;4.474;2024-01-07T05:34:46;77.10;;;70.07;;
25932;SDS011;13731;51.166;4.474;2024-01-07T05:37:12;80.78;;;73.55;;
25932;SDS011;13731;51.166;4.474;2024-01-07T05:39:38;75.97;;;68.95;;
25932;SDS011;13731;51.166;4.474;2024-01-07T05:42:04;75.75;;;69.28;;
25932;SDS011;13731;51.166;4.474;2024-01-07T05:44:30;79.25;;;72.18;;
25932;SDS011;13731;51.166;4.474;2024-01-07T05:46:55;75.65;;;68.93;;
25932;SDS011;13731;51.166;4.474;2024-01-07T05:49:22;82.10;;;74.80;;
25932;SDS011;13731;51.166;4.474;2024-01-07T05:51:50;76.38;;;68.95;;
25932;SDS011;13731;51.166;4.474;2024-01-07T05:54:15;74.47;;;67.25;;
25932;SDS011;13731;51.166;4.474;2024-01-07T05:56:41;70.53;;;63.30;;
25932;SDS011;13731;51.166;4.474;2024-01-07T05:59:07;76.00;;;68.85;;
25932;SDS011;13731;51.166;4.474;2024-01-07T06:01:33;74.25;;;66.60;;
25932;SDS011;13731;51.166;4.474;2024-01-07T06:04:00;69.00;;;61.72;;
25932;SDS011;13731;51.166;4.474;2024-01-07T06:06:26;70.50;;;63.03;;
25932;SDS011;13731;51.166;4.474;2024-01-07T06:08:51;74.00;;;66.28;;
25932;SDS011;13731;51.166;4.474;2024-01-07T06:11:17;80.47;;;72.20;;
25932;SDS011;13731;51.166;4.474;2024-01-07T06:13:45;78.10;;;70.00;;
25932;SDS011;13731;51.166;4.474;2024-01-07T06:16:11;77.78;;;69.90;;
25932;SDS011;13731;51.166;4.474;2024-01-07T06:18:37;80.13;;;71.82;;
25932;SDS011;13731;51.166;4.474;2024-01-07T06:21:03;79.78;;;71.57;;
25932;SDS011;13731;51.166;4.474;2024-01-07T06:23:29;78.88;;;70.38;;
25932;SDS011;13731;51.166;4.474;2024-01-07T06:25:57;86.32;;;77.45;;
25932;SDS011;13731;51.166;4.474;2024-01-07T06:28:23;87.13;;;78.30;;
25932;SDS011;13731;51.166;4.474;2024-01-07T06:30:49;84.47;;;75.30;;
25932;SDS011;13731;51.166;4.474;2024-01-07T06:33:14;89.57;;;80.25;;
25932;SDS011;13731;51.166;4.474;2024-01-07T06:35:40;83.32;;;74.32;;
25932;SDS011;13731;51.166;4.474;2024-01-07T06:38:06;83.75;;;74.78;;
25932;SDS011;13731;51.166;4.474;2024-01-07T06:40:32;84.65;;;73.40;;
25932;SDS011;13731;51.166;4.474;2024-01-07T06:42:58;83.10;;;74.05;;
25932;SDS011;13731;51.166;4.474;2024-01-07T06:45:24;81.32;;;72.65;;
25932;SDS011;13731;51.166;4.474;2024-01-07T06:47:49;83.53;;;73.95;;
25932;SDS011;13731;51.166;4.474;2024-01-07T06:50:15;77.05;;;68.63;;
25932;SDS011;13731;51.166;4.474;2024-01-07T06:52:41;75.20;;;65.95;;
25932;SDS011;13731;51.166;4.474;2024-01-07T06:55:07;84.72;;;75.60;;
25932;SDS011;13731;51.166;4.474;2024-01-07T06:57:33;82.97;;;74.38;;
25932;SDS011;13731;51.166;4.474;2024-01-07T07:00:00;83.78;;;74.97;;
25932;SDS011;13731;51.166;4.474;2024-01-07T07:02:25;76.03;;;67.28;;
25932;SDS011;13731;51.166;4.474;2024-01-07T07:04:51;77.63;;;69.63;;
25932;SDS011;13731;51.166;4.474;2024-01-07T07:07:17;82.15;;;72.85;;
25932;SDS011;13731;51.166;4.474;2024-01-07T07:09:43;83.90;;;73.53;;
25932;SDS011;13731;51.166;4.474;2024-01-07T07:12:09;82.53;;;73.88;;
25932;SDS011;13731;51.166;4.474;2024-01-07T07:14:36;83.35;;;74.25;;
25932;SDS011;13731;51.166;4.474;2024-01-07T07:17:02;81.20;;;69.72;;
25932;SDS011;13731;51.166;4.474;2024-01-07T07:19:28;80.80;;;72.40;;
25932;SDS011;13731;51.166;4.474;2024-01-07T07:21:54;84.50;;;70.20;;
25932;SDS011;13731;51.166;4.474;2024-01-07T07:24:20;78.40;;;69.80;;
25932;SDS011;13731;51.166;4.474;2024-01-07T07:26:46;82.65;;;73.75;;
25932;SDS011;13731;51.166;4.474;2024-01-07T07:29:12;76.32;;;64.75;;
25932;SDS011;13731;51.166;4.474;2024-01-07T07:31:38;78.63;;;70.65;;
25932;SDS011;13731;51.166;4.474;2024-01-07T07:34:04;77.57;;;69.22;;
25932;SDS011;13731;51.166;4.474;2024-01-07T07:36:30;76.78;;;68.32;;
25932;SDS011;13731;51.166;4.474;2024-01-07T07:38:56;79.70;;;71.78;;
25932;SDS011;13731;51.166;4.474;2024-01-07T07:41:22;75.00;;;67.60;;
25932;SDS011;13731;51.166;4.474;2024-01-07T07:43:48;74.30;;;66.32;;
25932;SDS011;13731;51.166;4.474;2024-01-07T07:46:14;70.00;;;62.47;;
25932;SDS011;13731;51.166;4.474;2024-01-07T07:48:41;72.70;;;65.05;;
25932;SDS011;13731;51.166;4.474;2024-01-07T07:51:07;72.03;;;64.75;;
25932;SDS011;13731;51.166;4.474;2024-01-07T07:53:33;70.20;;;63.30;;
25932;SDS011;13731;51.166;4.474;2024-01-07T07:55:59;69.63;;;62.28;;
25932;SDS011;13731;51.166;4.474;2024-01-07T07:58:27;72.47;;;64.80;;
25932;SDS011;13731;51.166;4.474;2024-01-07T08:00:53;70.00;;;62.70;;
25932;SDS011;13731;51.166;4.474;2024-01-07T08:03:19;71.82;;;64.43;;
25932;SDS011;13731;51.166;4.474;2024-01-07T08:05:47;80.50;;;72.88;;
25932;SDS011;13731;51.166;4.474;2024-01-07T08:08:13;74.68;;;67.22;;
25932;SDS011;13731;51.166;4.474;2024-01-07T08:10:38;75.93;;;68.43;;
25932;SDS011;13731;51.166;4.474;2024-01-07T08:13:04;73.70;;;66.18;;
25932;SDS011;13731;51.166;4.474;2024-01-07T08:15:31;76.43;;;68.72;;
25932;SDS011;13731;51.166;4.474;2024-01-07T08:17:57;71.63;;;64.47;;
25932;SDS011;13731;51.166;4.474;2024-01-07T08:20:23;74.45;;;67.00;;
25932;SDS011;13731;51.166;4.474;2024-01-07T08:22:49;67.45;;;60.58;;
25932;SDS011;13731;51.166;4.474;2024-01-07T08:25:15;67.90;;;61.33;;
25932;SDS011;13731;51.166;4.474;2024-01-07T08:27:41;61.30;;;54.95;;
25932;SDS011;13731;51.166;4.474;2024-01-07T08:30:07;64.32;;;57.38;;
25932;SDS011;13731;51.166;4.474;2024-01-07T08:32:33;65.90;;;59.10;;
25932;SDS011;13731;51.166;4.474;2024-01-07T08:35:00;66.30;;;59.67;;
25932;SDS011;13731;51.166;4.474;2024-01-07T08:37:26;67.57;;;60.92;;
25932;SDS011;13731;51.166;4.474;2024-01-07T08:39:52;69.88;;;63.25;;
25932;SDS011;13731;51.166;4.474;2024-01-07T08:42:17;67.80;;;60.63;;
25932;SDS011;13731;51.166;4.474;2024-01-07T08:44:44;63.90;;;57.70;;
25932;SDS011;13731;51.166;4.474;2024-01-07T08:47:10;66.32;;;59.85;;
25932;SDS011;13731;51.166;4.474;2024-01-07T08:49:38;64.40;;;57.97;;
25932;SDS011;13731;51.166;4.474;2024-01-07T08:52:04;59.28;;;52.92;;
25932;SDS011;13731;51.166;4.474;2024-01-07T08:54:30;64.80;;;58.58;;
25932;SDS011;13731;51.166;4.474;2024-01-07T08:56:56;64.43;;;58.25;;
25932;SDS011;13731;51.166;4.474;2024-01-07T08:59:22;62.05;;;55.85;;
25932;SDS011;13731;51.166;4.474;2024-01-07T09:01:48;61.58;;;55.78;;
25932;SDS011;13731;51.166;4.474;2024-01-07T09:04:13;59.78;;;53.90;;
25932;SDS011;13731;51.166;4.474;2024-01-07T09:06:42;60.07;;;54.53;;
25932;SDS011;13731;51.166;4.474;2024-01-07T09:09:08;52.80;;;47.25;;
25932;SDS011;13731;51.166;4.474;2024-01-07T09:11:33;60.05;;;54.05;;
25932;SDS011;13731;51.166;4.474;2024-01-07T09:14:00;60.78;;;54.78;;
25932;SDS011;13731;51.166;4.474;2024-01-07T09:16:26;62.78;;;56.33;;
25932;SDS011;13731;51.166;4.474;2024-01-07T09:18:53;63.13;;;56.75;;
25932;SDS011;13731;51.166;4.474;2024-01-07T09:21:20;56.85;;;51.35;;
25932;SDS011;13731;51.166;4.474;2024-01-07T09:23:46;64.38;;;58.10;;
25932;SDS011;13731;51.166;4.474;2024-01-07T09:26:11;62.92;;;56.75;;
25932;SDS011;13731;51.166;4.474;2024-01-07T09:28:37;56.97;;;51.25;;
25932;SDS011;13731;51.166;4.474;2024-01-07T09:31:03;58.65;;;52.88;;
25932;SDS011;13731;51.166;4.474;2024-01-07T09:33:29;57.15;;;51.17;;
25932;SDS011;13731;51.166;4.474;2024-01-07T09:35:55;54.63;;;49.13;;
25932;SDS011;13731;51.166;4.474;2024-01-07T09:38:21;49.10;;;44.20;;
25932;SDS011;13731;51.166;4.474;2024-01-07T09:40:46;51.63;;;46.63;;
25932;SDS011;13731;51.166;4.474;2024-01-07T09:43:13;49.13;;;44.25;;
25932;SDS011;13731;51.166;4.474;2024-01-07T09:45:41;44.30;;;39.70;;
25932;SDS011;13731;51.166;4.474;2024-01-07T09:48:11;47.22;;;42.33;;
25932;SDS011;13731;51.166;4.474;2024-01-07T09:50:36;49.60;;;44.50;;
25932;SDS011;13731;51.166;4.474;2024-01-07T09:53:02;53.28;;;48.05;;
25932;SDS011;13731;51.166;4.474;2024-01-07T09:55:37;49.03;;;43.97;;
25932;SDS011;13731;51.166;4.474;2024-01-07T09:58:17;50.22;;;45.20;;
25932;SDS011;13731;51.166;4.474;2024-01-07T10:00:43;47.30;;;42.75;;
25932;SDS011;13731;51.166;4.474;2024-01-07T10:03:08;45.17;;;40.58;;
25932;SDS011;13731;51.166;4.474;2024-01-07T10:05:34;43.70;;;39.22;;
25932;SDS011;13731;51.166;4.474;2024-01-07T10:08:00;44.78;;;40.15;;
25932;SDS011;13731;51.166;4.474;2024-01-07T10:10:27;45.33;;;40.80;;
25932;SDS011;13731;51.166;4.474;2024-01-07T10:12:54;43.55;;;39.28;;
25932;SDS011;13731;51.166;4.474;2024-01-07T10:15:22;42.55;;;37.90;;
25932;SDS011;13731;51.166;4.474;2024-01-07T10:17:48;40.50;;;36.47;;
25932;SDS011;13731;51.166;4.474;2024-01-07T10:20:14;44.90;;;40.75;;
25932;SDS011;13731;51.166;4.474;2024-01-07T10:22:46;39.90;;;35.92;;
25932;SDS011;13731;51.166;4.474;2024-01-07T10:25:15;41.70;;;36.50;;
25932;SDS011;13731;51.166;4.474;2024-01-07T10:27:41;39.67;;;35.10;;
25932;SDS011;13731;51.166;4.474;2024-01-07T10:30:08;51.63;;;46.00;;
25932;SDS011;13731;51.166;4.474;2024-01-07T10:32:37;57.58;;;52.53;;
25932;SDS011;13731;51.166;4.474;2024-01-07T10:35:04;40.25;;;36.33;;
25932;SDS011;13731;51.166;4.474;2024-01-07T10:37:30;37.53;;;33.63;;
25932;SDS011;13731;51.166;4.474;2024-01-07T10:39:57;38.05;;;34.42;;
25932;SDS011;13731;51.166;4.474;2024-01-07T10:42:30;38.95;;;34.17;;
25932;SDS011;13731;51.166;4.474;2024-01-07T10:45:00;41.28;;;37.17;;
25932;SDS011;13731;51.166;4.474;2024-01-07T10:47:27;42.55;;;36.05;;
25932;SDS011;13731;51.166;4.474;2024-01-07T10:49:56;36.55;;;32.72;;
25932;SDS011;13731;51.166;4.474;2024-01-07T10:52:23;38.10;;;34.17;;
25932;SDS011;13731;51.166;4.474;2024-01-07T10:54:51;35.03;;;31.52;;
25932;SDS011;13731;51.166;4.474;2024-01-07T10:57:32;33.17;;;29.75;;
25932;SDS011;13731;51.166;4.474;2024-01-07T11:00:04;35.90;;;32.13;;
25932;SDS011;13731;51.166;4.474;2024-01-07T11:02:34;35.63;;;32.27;;
25932;SDS011;13731;51.166;4.474;2024-01-07T11:05:11;43.40;;;39.08;;
25932;SDS011;13731;51.166;4.474;2024-01-07T11:07:45;35.53;;;32.08;;
25932;SDS011;13731;51.166;4.474;2024-01-07T11:10:22;37.38;;;33.88;;
25932;SDS011;13731;51.166;4.474;2024-01-07T11:12:57;36.53;;;32.83;;
25932;SDS011;13731;51.166;4.474;2024-01-07T11:15:59;37.63;;;33.95;;
25932;SDS011;13731;51.166;4.474;2024-01-07T11:18:20;34.38;;;30.67;;
25932;SDS011;13731;51.166;4.474;2024-01-07T11:20:47;32.55;;;29.20;;
25932;SDS011;13731;51.166;4.474;2024-01-07T11:23:26;41.80;;;38.10;;
25932;SDS011;13731;51.166;4.474;2024-01-07T11:26:01;33.60;;;30.30;;
25932;SDS011;13731;51.166;4.474;2024-01-07T11:31:16;42.92;;;38.92;;
25932;SDS011;13731;51.166;4.474;2024-01-07T11:33:45;31.25;;;28.15;;
25932;SDS011;13731;51.166;4.474;2024-01-07T11:36:12;29.77;;;26.98;;
25932;SDS011;13731;51.166;4.474;2024-01-07T11:38:47;31.85;;;28.55;;
25932;SDS011;13731;51.166;4.474;2024-01-07T11:41:16;32.63;;;29.15;;
25932;SDS011;13731;51.166;4.474;2024-01-07T11:46:20;30.13;;;27.23;;
25932;SDS011;13731;51.166;4.474;2024-01-07T11:48:52;30.20;;;27.33;;
25932;SDS011;13731;51.166;4.474;2024-01-07T11:51:31;32.92;;;29.70;;
25932;SDS011;13731;51.166;4.474;2024-01-07T11:53:57;34.38;;;31.00;;
25932;SDS011;13731;51.166;4.474;2024-01-07T11:56:24;37.30;;;33.45;;
25932;SDS011;13731;51.166;4.474;2024-01-07T11:58:51;31.15;;;28.13;;
25932;SDS011;13731;51.166;4.474;2024-01-07T12:01:17;34.38;;;30.85;;
25932;SDS011;13731;51.166;4.474;2024-01-07T12:03:45;27.67;;;24.85;;
25932;SDS011;13731;51.166;4.474;2024-01-07T12:06:11;29.90;;;26.75;;
25932;SDS011;13731;51.166;4.474;2024-01-07T12:11:07;29.67;;;25.33;;
25932;SDS011;13731;51.166;4.474;2024-01-07T12:13:37;27.58;;;24.48;;
25932;SDS011;13731;51.166;4.474;2024-01-07T12:16:05;31.27;;;28.38;;
25932;SDS011;13731;51.166;4.474;2024-01-07T12:18:31;29.48;;;26.42;;
25932;SDS011;13731;51.166;4.474;2024-01-07T12:20:58;27.08;;;23.45;;
25932;SDS011;13731;51.166;4.474;2024-01-07T12:23:25;30.88;;;28.05;;
25932;SDS011;13731;51.166;4.474;2024-01-07T12:25:52;29.52;;;26.60;;
25932;SDS011;13731;51.166;4.474;2024-01-07T12:28:18;26.70;;;24.10;;
25932;SDS011;13731;51.166;4.474;2024-01-07T12:30:47;26.88;;;24.13;;
25932;SDS011;13731;51.166;4.474;2024-01-07T12:33:17;25.15;;;22.58;;
25932;SDS011;13731;51.166;4.474;2024-01-07T12:35:45;28.67;;;25.77;;
25932;SDS011;13731;51.166;4.474;2024-01-07T12:38:12;29.80;;;26.77;;
25932;SDS011;13731;51.166;4.474;2024-01-07T12:40:41;26.73;;;23.88;;
25932;SDS011;13731;51.166;4.474;2024-01-07T12:43:07;26.08;;;22.98;;
25932;SDS011;13731;51.166;4.474;2024-01-07T12:45:33;26.35;;;23.73;;
25932;SDS011;13731;51.166;4.474;2024-01-07T12:47:59;24.17;;;21.90;;
25932;SDS011;13731;51.166;4.474;2024-01-07T12:50:27;24.65;;;22.13;;
25932;SDS011;13731;51.166;4.474;2024-01-07T12:52:56;24.60;;;22.15;;
25932;SDS011;13731;51.166;4.474;2024-01-07T12:55:22;31.95;;;29.13;;
25932;SDS011;13731;51.166;4.474;2024-01-07T12:57:48;24.40;;;21.50;;
25932;SDS011;13731;51.166;4.474;2024-01-07T13:00:14;25.48;;;22.88;;
25932;SDS011;13731;51.166;4.474;2024-01-07T13:02:41;25.48;;;22.98;;
25932;SDS011;13731;51.166;4.474;2024-01-07T13:05:07;24.70;;;22.33;;
25932;SDS011;13731;51.166;4.474;2024-01-07T13:07:34;25.15;;;22.83;;
25932;SDS011;13731;51.166;4.474;2024-01-07T13:10:00;23.55;;;21.05;;
25932;SDS011;13731;51.166;4.474;2024-01-07T13:12:26;25.23;;;22.65;;
25932;SDS011;13731;51.166;4.474;2024-01-07T13:14:52;24.42;;;21.83;;
25932;SDS011;13731;51.166;4.474;2024-01-07T13:17:18;25.67;;;23.30;;
25932;SDS011;13731;51.166;4.474;2024-01-07T13:19:44;25.83;;;23.33;;
25932;SDS011;13731;51.166;4.474;2024-01-07T13:22:11;27.35;;;24.48;;
25932;SDS011;13731;51.166;4.474;2024-01-07T13:24:38;27.00;;;24.30;;
25932;SDS011;13731;51.166;4.474;2024-01-07T13:27:05;27.15;;;24.65;;
25932;SDS011;13731;51.166;4.474;2024-01-07T13:29:31;27.30;;;24.40;;
25932;SDS011;13731;51.166;4.474;2024-01-07T13:31:57;26.20;;;23.67;;
25932;SDS011;13731;51.166;4.474;2024-01-07T13:34:22;28.80;;;26.02;;
25932;SDS011;13731;51.166;4.474;2024-01-07T13:36:48;29.15;;;26.15;;
25932;SDS011;13731;51.166;4.474;2024-01-07T13:39:16;26.98;;;24.15;;
25932;SDS011;13731;51.166;4.474;2024-01-07T13:41:42;25.60;;;23.00;;
25932;SDS011;13731;51.166;4.474;2024-01-07T13:44:09;25.75;;;22.52;;
25932;SDS011;13731;51.166;4.474;2024-01-07T13:46:45;27.33;;;24.55;;
25932;SDS011;13731;51.166;4.474;2024-01-07T13:49:15;28.13;;;25.30;;
25932;SDS011;13731;51.166;4.474;2024-01-07T13:51:41;27.92;;;23.80;;
25932;SDS011;13731;51.166;4.474;2024-01-07T13:54:08;24.38;;;21.70;;
25932;SDS011;13731;51.166;4.474;2024-01-07T13:56:38;25.40;;;22.83;;
25932;SDS011;13731;51.166;4.474;2024-01-07T13:59:08;26.85;;;22.73;;
25932;SDS011;13731;51.166;4.474;2024-01-07T14:01:39;28.23;;;24.48;;
25932;SDS011;13731;51.166;4.474;2024-01-07T14:04:07;27.80;;;24.90;;
25932;SDS011;13731;51.166;4.474;2024-01-07T14:06:33;28.80;;;25.25;;
25932;SDS011;13731;51.166;4.474;2024-01-07T14:09:00;27.83;;;24.90;;
25932;SDS011;13731;51.166;4.474;2024-01-07T14:11:26;24.90;;;22.20;;
25932;SDS011;13731;51.166;4.474;2024-01-07T14:13:54;26.70;;;23.85;;
25932;SDS011;13731;51.166;4.474;2024-01-07T14:16:20;27.50;;;24.73;;
25932;SDS011;13731;51.166;4.474;2024-01-07T14:18:46;25.48;;;23.00;;
25932;SDS011;13731;51.166;4.474;2024-01-07T14:21:12;24.80;;;22.38;;
25932;SDS011;13731;51.166;4.474;2024-01-07T14:23:37;24.10;;;21.60;;
25932;SDS011;13731;51.166;4.474;2024-01-07T14:26:03;25.42;;;22.85;;